Home Team Position History
You can show your support by sponsoring this page for $50.  
Your ad/message will appear in this space for one year.  
Thank you for your support!       Team History Index Chicago White Sox
         
          Shortstop
             
Pos St All- Other Shortstop Fielding Statistics Pos St Batting Statistics as Shortstop Win Shares Pos St
Year Rank Rank Name HOF MVP Star Rookie GG SS Team Stdg Bats Age Pos Games PO Assts Err DP F Pct. Year Rank Rank Name At Bats Hits 2B 3B HR Runs RBI BB IBB SO HP SH SF SB CS GDP BA OBA SA OPS RC B WS F WS T WS BWS/G FWS/G TWS/G Adj WSQ Year Rank Rank Name
1901 6 6 Frank Shugart     CHI 1 B 34   107 223 338 73 32 .885   1901 6 6 Frank Shugart 415 104 9 12 2 62 47 28 2 10 12 .251 .301 .345 .646 54   5.4 4.7 10.1 .050 .044 .094 8.67 1901 6 6 Frank Shugart
1901 8 Jimmy Burke   R   CHI 1 R 26 3B   31 56 94 23 10 .867   1901 8 Jimmy Burke 109 29 4 0 0 15 16 9 1 6 8 .266 .328 .303 .631 15   0.8 1.0 1.8 .026 .032 .058 1.21 1901 8 Jimmy Burke
         
1902 1 1 George Davis Vet     CHI 4 B 31   129 289 427 37 72 .951   1902 1 1 George Davis 474 142 26 7 3 74 91 64 4 12 30 .300 .387 .403 .790 96   19.1 6.9 26.0 .148 .053 .202 32.52 1902 1 1 George Davis
         
1903 6 6 Lee Tannehill   R   CHI 7 R 22   138 291 457 76 58 .908   1903 6 6 Lee Tannehill 503 113 14 3 2 48 50 25 1 18 10 .225 .263 .276 .539 38   2.4 5.5 7.9 .017 .040 .057 5.04 1903 6 6 Lee Tannehill
         
1904 2 2 George Davis Vet     CHI 3 B 33   152 347 514 58 62 .937   1904 2 2 George Davis 563 142 27 15 1 75 69 43 5 15 32 .252 .311 .359 .670 80   20.2 7.8 28.0 .133 .051 .184 31.01 1904 2 2 George Davis
         
1905 1 1 George Davis Vet     CHI 2 B 34   151 330 501 46 56 .948   1905 1 1 George Davis 550 153 29 1 1 74 55 60 4 40 31 .278 .353 .340 .693 87   20.2 7.4 27.6 .134 .049 .183 34.04 1905 1 1 George Davis
         
1906 1 1 George Davis Vet     CHI 1 B 35   129 263 475 42 44 .946   1906 1 1 George Davis 480 133 26 6 0 63 79 41 4 12 27 .277 .339 .356 .695 75   22.2 6.7 28.9 .172 .052 .224 34.58 1906 1 1 George Davis
         
1907 3 3 George Davis Vet     CHI 3 B 36   132 223 485 38 53 .949   1907 3 3 George Davis 466 111 16 2 1 59 52 47 4 17 15 .238 .313 .288 .601 57   11.3 5.2 16.5 .086 .039 .125 16.50 1907 3 3 George Davis
1907 12 George Rohe     CHI 3 R 31 2B,3B   30 38 94 11 8 .923   1907 12 George Rohe 102 22 2 0 0 10 11 8 1 4 3 .216 .279 .235 .514 9   1.1 1.2 2.3 .037 .040 .077 1.80 1907 12 George Rohe
         
1908 6 6 Freddy Parent     CHI 3 R 32   118 212 422 49 33 .928   1908 6 6 Freddy Parent 391 81 7 5 0 28 35 50 2 18 9 .207 .300 .251 .551 39   8.0 3.3 11.3 .068 .028 .096 10.17 1908 6 6 Freddy Parent
1908 13 George Davis Vet     CHI 3 B 37 2B   23 51 65 11 6 .913   1908 13 George Davis 79 17 3 0 0 8 5 8 1 6 4 .215 .295 .253 .548 8   1.7 1.2 2.9 .074 .052 .126 3.00 1908 13 George Davis
         
1909 2 2 Freddy Parent     CHI 4 R 33 CF   98 182 357 41 34 .929   1909 2 2 Freddy Parent 338 88 7 4 0 44 21 33 5 19 23 .260 .335 .305 .640 44   10.3 6.7 17.0 .105 .068 .173 19.89 1909 2 2 Freddy Parent
1909 11 Lee Tannehill     CHI 4 R 28 3B   64 126 251 24 21 .940   1909 11 Lee Tannehill 219 49 9 2 0 16 19 13 1 12 5 .224 .270 .283 .553 19   2.5 3.6 6.1 .039 .056 .095 5.29 1909 11 Lee Tannehill
         
1910 10 8 Lena Blackburne   R   CHI 6 R 23   74 173 265 43 29 .911   1910 10 8 Lena Blackburne 242 42 3 1 0 16 10 19 4 10 4 .174 .245 .194 .439 12   - 4.3 4.3 .000 .058 .058 2.85 1910 10 8 Lena Blackburne
1910 8 Rollie Zeider   R   CHI 6 R 26 2B   45 100 117 24 15 .900   1910 8 Rollie Zeider 165 36 3 1 0 19 10 21 0 7 16 .218 .306 .248 .554 19   3.3 2.2 5.5 .073 .049 .122 5.28 1910 8 Rollie Zeider
1910 T11 Lee Tannehill     CHI 6 R 29 1B   38 52 126 10 15 .947   1910 T11 Lee Tannehill 130 29 6 0 1 10 12 6 1 7 2 .223 .263 .292 .555 11   1.2 1.9 3.1 .032 .050 .082 2.43 1910 T11 Lee Tannehill
         
1911 3 3 Lee Tannehill     CHI 4 R 30 2B   102 262 380 29 37 .957   1911 3 3 Lee Tannehill 373 95 12 4 0 43 35 23 1 15 0 .255 .300 .308 .608 40   3.7 8.0 11.7 .036 .078 .115 12.46 1911 3 3 Lee Tannehill
1911 12 Roy Corhan   R   CHI 4 R 23   43 98 146 20 18 .924   1911 12 Roy Corhan 131 28 6 2 0 14 8 15 2 5 2 .214 .304 .290 .594 14   1.2 2.8 4.0 .028 .065 .093 3.84 1911 12 Roy Corhan
         
1912 6 6 Buck Weaver   R   CHI 4 R 21   147 342 425 71 53 .915   1912 6 6 Buck Weaver 523 117 21 8 1 55 43 9 6 15 12 .224 .245 .300 .545 40   1.3 6.3 7.6 .009 .043 .052 5.38 1912 6 6 Buck Weaver
         
1913 1 1 Buck Weaver     CHI 5 R 22   151 390 520 70 73 .929   1913 1 1 Buck Weaver 533 145 17 8 4 51 52 15 60 8 18 20 .272 .302 .356 .658 59   10.5 12.4 22.9 .070 .082 .152 26.58 1913 1 1 Buck Weaver
         
1914 8 8 Buck Weaver T7     CHI T6 R 23   134 367 389 59 50 .928   1914 8 8 Buck Weaver 541 133 20 9 2 64 28 20 40 5 10 14 20 .246 .279 .327 .606 45   5.0 3.1 8.1 .037 .023 .060 6.23 1914 8 8 Buck Weaver
1914 13 Joe Berger     CHI T6 R 27   27 56 74 11 7 .922   1914 13 Joe Berger 87 14 2 1 0 6 2 8 5 0 3 1 5 .161 .232 .207 .439 1   - 0.7 0.7 .000 .026 .026 0.35 1914 13 Joe Berger
         
1915 1 1 Buck Weaver     CHI 3 R 24   148 281 470 49 54 .939   1915 1 1 Buck Weaver 563 151 18 11 3 83 49 32 58 7 42 24 20 .268 .316 .355 .671 71   12.0 8.7 20.7 .081 .059 .140 24.36 1915 1 1 Buck Weaver
         
1916 12 8 Zeb Terry   R   CHI 2 R 24   93 148 243 27 36 .935   1916 12 8 Zeb Terry 269 51 8 4 0 20 17 33 36 6 16 4 .190 .292 .249 .541 22   1.6 4.0 5.6 .017 .043 .060 4.39 1916 12 8 Zeb Terry
1916 9 Buck Weaver     CHI 2 R 25 3B   66 142 192 16 27 .954   1916 9 Buck Weaver 254 58 12 3 1 34 17 13 21 6 19 10 .228 .282 .311 .593 24   2.5 3.9 6.4 .038 .059 .097 6.37 1916 9 Buck Weaver
         
1917 5 5 Swede Risberg   R   CHI 1 R 22   146 291 352 61 57 .913   1917 5 5 Swede Risberg 474 96 20 8 1 59 45 59 65 5 25 16 .203 .297 .285 .582 49   7.5 6.1 13.6 .051 .042 .093 11.88 1917 5 5 Swede Risberg
         
1918 2 2 Buck Weaver     CHI 6 R 27   98 191 319 32 50 .941   1918 2 2 Buck Weaver 374 112 11 4 0 33 26 10 21 3 17 18 .299 .323 .350 .673 44   7.8 5.3 13.1 .080 .054 .134 14.30 1918 2 2 Buck Weaver
1918 9 Swede Risberg     CHI 6 R 23 3B   30 59 76 8 12 .944   1918 9 Swede Risberg 108 28 5 1 0 14 11 9 13 1 2 2 .259 .322 .324 .646 12   2.1 1.2 3.3 .070 .040 .110 3.27 1918 9 Swede Risberg
         
Pos St All- Other Shortstop Fielding Statistics Pos St Batting Statistics as Shortstop Win Shares Pos St
Year Rank Rank Name HOF MVP Star Rookie GG SS Team Stdg Bats Age Pos Games PO Assts Err DP F Pct. Year Rank Rank Name At Bats Hits 2B 3B HR Runs RBI BB IBB SO HP SH SF SB CS GDP BA OBA SA OPS RC B WS F WS T WS BWS/G FWS/G TWS/G Adj WSQ Year Rank Rank Name
1919 5 5 Swede Risberg     CHI 1 R 24 1B   97 175 278 32 39 .934   1919 5 5 Swede Risberg 337 86 15 5 2 39 31 29 31 2 11 15 .255 .318 .347 .665 39   6.2 4.4 10.6 .064 .045 .109 9.93 1919 5 5 Swede Risberg
1919 6 Buck Weaver     CHI 1 R 28 3B   43 87 141 8 14 .966   1919 6 Buck Weaver 175 52 10 3 1 27 23 3 6 2 10 7 .297 .317 .406 .723 23   4.1 2.4 6.5 .095 .056 .151 7.16 1919 6 Buck Weaver
         
1920 3 3 Swede Risberg     CHI 2 R 25   124 238 400 45 59 .934   1920 3 3 Swede Risberg 458 122 21 10 2 53 65 31 45 2 15 12 10 .266 .316 .369 .685 54   6.7 7.8 14.5 .054 .063 .117 14.37 1920 3 3 Swede Risberg
1920 8 Buck Weaver     CHI 2 R 29 3B   25 56 75 5 18 .963   1920 8 Buck Weaver 104 34 6 1 0 17 12 5 4 1 4 3 3 .327 .364 .404 .768 16   2.8 1.2 4.0 .112 .048 .160 4.63 1920 8 Buck Weaver
         
1921 4 4 Ernie Johnson     CHI 7 L 33   141 291 494 44 80 .947   1921 4 4 Ernie Johnson 613 181 28 7 1 93 51 29 24 1 21 22 13 .295 .328 .369 .697 70   6.7 6.5 13.2 .048 .046 .094 12.21 1921 4 4 Ernie Johnson
         
1922 7 7 Ernie Johnson     CHI 5 L 34   141 259 468 37 74 .952   1922 7 7 Ernie Johnson 603 153 17 3 0 85 56 40 30 4 26 21 18 .254 .304 .292 .596 52   1.8 6.7 8.5 .013 .048 .060 6.52 1922 7 7 Ernie Johnson
         
1923 9 8 Harvey McClellan     CHI 7 R 28   139 217 394 27 64 .958   1923 9 8 Harvey McClellan 542 127 29 3 1 66 40 27 43 0 35 14 11 .234 .271 .304 .575 41   - 4.5 4.5 .000 .032 .032 2.38 1923 9 8 Harvey McClellan
         
1924 8 8 Bill Barrett     CHI 8 R 24 LF   77 167 199 39 36 .904   1924 8 8 Bill Barrett 277 75 12 3 1 35 38 20 26 2 5 10 7 .271 .324 .347 .671 33   3.3 1.3 4.6 .043 .017 .060 3.42 1924 8 8 Bill Barrett
1924 14 Ray French   R   CHI 8 R 29   28 34 89 10 9 .925   1924 14 Ray French 101 18 4 0 0 12 10 9 12 0 2 3 1 .178 .245 .218 .463 5   - 0.4 0.4 .000 .014 .014 0.15 1924 14 Ray French
1924 12 Ray Morehart   R   CHI 8 L 24   27 35 68 15 12 .873   1924 12 Ray Morehart 93 19 4 2 0 9 7 16 7 0 3 3 1 .204 .321 .290 .611 9   0.7 0.3 1.0 .026 .011 .037 0.59 1924 12 Ray Morehart
1924 13 Harvey McClellan     CHI 8 R 29   21 26 65 6 6 .938   1924 13 Harvey McClellan 60 11 2 0 0 6 6 4 5 1 6 1 0 .183 .246 .217 .463 3   - 0.4 0.4 .000 .019 .019 0.17 1924 13 Harvey McClellan
         
1925 3 3 Ike Davis   R   CHI 5 R 30   144 313 472 53 97 .937   1925 3 3 Ike Davis 562 135 31 9 0 105 61 71 58 7 40 19 14 .240 .333 .327 .660 67   5.6 7.7 13.3 .039 .053 .092 13.22 1925 3 3 Ike Davis
         
1926 6 6 Bill Hunnefield   R   CHI 5 B 27   98 185 257 33 44 .931   1926 6 6 Bill Hunnefield 354 97 20 3 2 61 36 28 21 1 23 18 7 .274 .329 .364 .693 42   4.9 4.3 9.2 .050 .044 .094 8.32 1926 6 6 Bill Hunnefield
1926 9 Everett Scott     CHI 5 R 33   39 70 120 9 20 .955   1926 9 Everett Scott 143 36 10 1 0 15 13 9 8 0 6 1 3 .252 .296 .336 .632 13   1.2 1.8 3.0 .031 .046 .077 2.46 1926 9 Everett Scott
1926 11 Moe Berg   R   CHI 5 R 24   31 59 86 8 21 .948   1926 11 Moe Berg 103 23 5 0 0 4 6 5 8 0 5 0 2 .223 .259 .272 .531 6   - 1.4 1.4 .000 .045 .045 0.88 1926 11 Moe Berg
         
1927 8 6 Bill Hunnefield     CHI 5 B 28   78 153 211 26 38 .933   1927 8 6 Bill Hunnefield 297 85 20 1 2 37 29 20 20 1 12 12 11 .286 .333 .380 .713 34   3.3 2.7 6.0 .042 .035 .077 5.12 1927 8 6 Bill Hunnefield
1927 7 Roger Peckinpaugh     CHI 5 R 36   60 101 170 10 30 .964   1927 7 Roger Peckinpaugh 217 64 6 3 0 23 23 21 6 1 7 2 3 .295 .360 .350 .710 28   3.2 2.5 5.7 .053 .042 .095 5.41 1927 7 Roger Peckinpaugh
1927 15 Roy Flaskamper   R   CHI 5 B 25   25 55 70 5 10 .962   1927 15 Roy Flaskamper 95 21 5 0 0 12 6 3 8 2 3 0 0 .221 .260 .274 .534 7   - 1.1 1.1 .000 .044 .044 0.71 1927 15 Roy Flaskamper
         
1928 5 5 Bill Cissell T15   R   CHI 5 R 24   123 255 360 41 77 .938   1928 5 5 Bill Cissell 443 115 22 3 1 66 60 29 41 1 11 18 6 .260 .307 .330 .637 48   4.5 6.1 10.6 .037 .050 .086 9.51 1928 5 5 Bill Cissell
1928 14 Buck Redfern   R   CHI 5 R 26 2B   33 83 82 13 19 .927   1928 14 Buck Redfern 109 25 3 1 0 9 15 5 8 0 5 3 1 .229 .263 .275 .538 8   - 1.3 1.3 .000 .039 .039 0.78 1928 14 Buck Redfern
         
1929 4 3 Bill Cissell     CHI 7 R 25   152 357 459 55 90 .937   1929 4 3 Bill Cissell 618 173 27 12 5 83 62 28 53 1 19 25 17 .280 .312 .387 .699 71   6.8 5.5 12.3 .045 .036 .081 10.80 1929 4 3 Bill Cissell
         
1930 10 8 Greg Mulleavy   R   CHI 7 R 24   73 137 219 32 41 .918   1930 10 8 Greg Mulleavy 289 76 14 5 0 27 28 20 23 0 12 5 2 .263 .311 .346 .657 32   2.0 1.1 3.1 .027 .015 .042 1.82 1930 10 8 Greg Mulleavy
1930 19 Ernie Smith   R   CHI 7 R 30   21 45 58 9 8 .920   1930 19 Ernie Smith 79 19 3 0 0 5 3 5 6 0 2 2 0 .241 .286 .278 .564 7   - - - .000 .000 .000 - 1930 19 Ernie Smith
1930 16 Bill Hunnefield     CHI 7 B 31   22 31 37 5 9 .932   1930 16 Bill Hunnefield 77 21 2 0 1 11 5 4 10 1 7 1 1 .273 .317 .338 .655 8   0.5 0.2 0.7 .023 .009 .032 0.35 1930 16 Bill Hunnefield
         
1931 12 8 Bill Cissell     CHI 8 R 27 2B   83 168 233 24 47 .944   1931 12 8 Bill Cissell 317 70 10 4 1 33 36 12 20 3 3 14 5 .221 .256 .287 .543 25   - 2.4 2.4 .000 .029 .029 1.14 1931 12 8 Bill Cissell
1931 9 Luke Appling BBW   R   CHI 8 R 24   76 147 232 42 37 .900   1931 9 Luke Appling 293 68 13 4 1 36 28 29 27 1 3 9 2 .232 .303 .314 .617 34   3.0 1.9 4.9 .039 .025 .064 3.46 1931 9 Luke Appling
         
1932 8 7 Luke Appling BBW     CHI 7 R 25 2B   85 195 287 37 66 .929   1932 8 7 Luke Appling 322 88 13 7 2 43 42 26 24 0 2 6 5 .273 .328 .376 .704 40   4.7 3.3 8.0 .055 .039 .094 6.96 1932 8 7 Luke Appling
1932 9 Red Kress     CHI 7 R 25 3B,RF   53 125 155 19 35 .936   1932 9 Red Kress 201 57 16 2 4 32 22 18 14 0 2 2 1 .284 .342 .443 .785 32   4.3 2.0 6.3 .081 .038 .119 6.15 1932 9 Red Kress
         
1933 3 3 Luke Appling BBW T21   CHI 6 R 26   151 314 534 55 107 .939   1933 3 3 Luke Appling 612 197 36 10 6 90 85 56 29 0 2 6 11 .322 .379 .443 .822 99   16.9 7.6 24.5 .112 .050 .162 26.68 1933 3 3 Luke Appling
       
Pos St All- Other Shortstop Fielding Statistics Pos St Batting Statistics as Shortstop Win Shares Pos St
Year Rank Rank Name HOF MVP Star Rookie GG SS Team Stdg Bats Age Pos Games PO Assts Err DP F Pct. Year Rank Rank Name At Bats Hits 2B 3B HR Runs RBI BB IBB SO HP SH SF SB CS GDP BA OBA SA OPS RC B WS F WS T WS BWS/G FWS/G TWS/G Adj WSQ Year Rank Rank Name
1934 5 5 Luke Appling BBW   CHI 8 R 27   110 243 341 34 55 .945   1934 5 5 Luke Appling 421 128 26 6 2 70 57 55 25 0 5 3 1 .304 .384 .409 .793 72   10.2 2.9 13.1 .093 .026 .119 13.19 1934 5 5 Luke Appling
1934 13 Joe Chamberlain R   CHI 8 R 24   26 32 80 13 10 .896   1934 13 Joe Chamberlain 92 22 3 1 1 8 11 4 25 0 0 1 1 .239 .271 .326 .597 8   0.1 0.4 0.5 .004 .015 .019 0.20 1934 13 Joe Chamberlain
1934 14 Bob Boken   CHI 8 R 26 2B   22 44 79 12 14 .911   1934 14 Bob Boken 83 19 3 0 1 8 11 4 9 0 2 1 0 .229 .264 .301 .565 7   0.1 0.3 0.4 .005 .014 .018 0.15 1934 14 Bob Boken
       
1935 1 1 Luke Appling BBW T15   CHI 5 R 28   153 335 556 39 93 .958   1935 1 1 Luke Appling 525 161 28 6 1 94 71 122 40 0 7 12 6 .307 .437 .389 .826 100   15.4 8.2 23.6 .101 .054 .154 26.51 1935 1 1 Luke Appling
       
1936 1 1 Luke Appling BBW 2 A   CHI 3 R 29   137 320 471 41 119 .951   1936 1 1 Luke Appling 526 204 31 7 6 111 128 85 25 1 6 10 6 .388 .474 .508 .982 134   23.2 5.5 28.7 .169 .040 .209 36.54 1936 1 1 Luke Appling
       
1937 1 1 Luke Appling BBW T17   CHI 3 R 30   154 280 541 49 111 .944   1937 1 1 Luke Appling 574 182 42 8 4 98 77 86 28 1 4 18 10 .317 .407 .439 .846 107   18.4 9.2 27.6 .119 .060 .179 31.36 1937 1 1 Luke Appling
       
1938 7 7 Luke Appling BBW   CHI 6 R 31   78 280 541 49 111 .944   1938 7 7 Luke Appling 294 89 14 0 0 41 44 42 17 1 1 1 3 .303 .392 .350 .742 43   5.0 4.1 9.1 .064 .053 .117 8.45 1938 7 7 Luke Appling
1938 9 Boze Berger   CHI 6 R 28 2B   67 144 224 21 55 .946   1938 9 Boze Berger 267 58 9 2 2 34 20 24 45 1 5 2 1 .217 .284 .288 .572 22   - 3.1 3.1 .000 .046 .046 1.82 1938 9 Boze Berger
       
1939 1 1 Luke Appling BBW T32 a   CHI 4 R 32   148 289 461 39 78 .951   1939 1 1 Luke Appling 516 162 16 6 0 82 56 105 37 0 9 16 9 11 .314 .430 .368 .798 96   15.1 9.1 24.2 .102 .061 .164 29.07 1939 1 1 Luke Appling
       
1940 2 2 Luke Appling BBW 10 A   CHI T4 R 33   150 307 436 37 83 .953   1940 2 2 Luke Appling 566 197 27 13 0 96 79 69 35 1 3 3 5 11 .348 .420 .442 .862 109   19.1 9.0 28.1 .127 .060 .187 32.94 1940 2 2 Luke Appling
       
1941 2 2 Luke Appling BBW a   CHI 3 R 34   154 294 473 42 95 .948   1941 2 2 Luke Appling 592 186 26 8 1 93 57 82 32 1 2 12 8 10 .314 .399 .390 .789 102   20.6 8.6 29.2 .134 .056 .190 32.76 1941 2 2 Luke Appling
       
1942 4 4 Luke Appling BBW   CHI 6 R 35   141 269 418 38 77 .948   1942 4 4 Luke Appling 543 142 26 4 3 78 53 63 23 3 4 17 5 7 .262 .342 .341 .683 73   13.0 7.2 20.2 .092 .051 .143 20.46 1942 4 4 Luke Appling
       
1943 1 1 Luke Appling BBW 2 a   CHI 4 R 36   155 300 500 36 115 .957   1943 1 1 Luke Appling 585 192 33 2 3 63 80 90 29 1 1 27 8 13 .328 .419 .407 .826 108   31.1 8.8 39.9 .201 .057 .257 51.06 1943 1 1 Luke Appling
       
1944 8 8 Skeeter Webb   CHI 7 R 34   135 202 461 39 81 .944   1944 8 8 Skeeter Webb 495 104 18 6 0 42 29 19 38 1 6 7 3 10 .210 .241 .271 .512 29   - 6.7 6.7 .000 .050 .050 4.09 1944 8 8 Skeeter Webb
1944 14 Cass Michaels R   CHI 7 R 18   21 36 70 8 12 .930   1944 14 Cass Michaels 60 11 4 1 0 4 4 2 4 0 0 0 0 1 .183 .210 .283 .493 3   - 0.9 0.9 .000 .043 .043 0.51 1944 14 Cass Michaels
       
1945 5 5 Cass Michaels R   CHI 6 R 19   126 259 426 47 74 .936   1945 5 5 Cass Michaels 441 108 8 5 2 47 54 37 28 3 14 8 7 13 .245 .308 .299 .607 42   5.2 4.3 9.5 .041 .034 .075 7.18 1945 5 5 Cass Michaels
       
1946 2 2 Luke Appling BBW 12 a   CHI 5 R 39   149 252 505 39 99 .951   1946 2 2 Luke Appling 582 180 27 5 1 59 55 71 41 0 6 6 4 15 .309 .384 .378 .762 86   18.6 7.3 25.9 .125 .049 .174 27.64 1946 2 2 Luke Appling
       
1947 4 4 Luke Appling BBW 10 a   CHI 6 R 40   129 232 422 35 86 .949   1947 4 4 Luke Appling 495 152 29 0 8 66 48 63 28 1 4 8 6 15 .307 .386 .414 .800 75   16.9 5.1 22.0 .131 .040 .171 23.80 1947 4 4 Luke Appling
1947 10 Jack Wallaesa   CHI 6 B 27 LF   27 55 94 5 22 .968   1947 10 Jack Wallaesa 111 22 5 1 4 14 17 12 28 1 0 1 1 3 .198 .282 .369 .651 10   0.9 1.8 2.7 .033 .067 .100 2.24 1947 10 Jack Wallaesa
       
1948 9 7 Cass Michaels   CHI 8 R 22 2B   85 164 285 20 65 .957   1948 9 7 Cass Michaels 292 72 7 4 3 28 34 42 25 1 2 5 1 7 .247 .343 .329 .672 34   4.0 2.4 6.4 .047 .028 .075 4.49 1948 9 7 Cass Michaels
1948 6 Luke Appling BBW 22   CHI 8 R 41 3B   64 133 210 20 50 .945   1948 6 Luke Appling 234 73 8 1 0 30 22 44 16 0 1 5 2 8 .312 .421 .355 .776 36   6.5 2.1 8.6 .102 .033 .134 8.07 1948 6 Luke Appling
       
1949 4 4 Luke Appling BBW T22   CHI 6 R 42   141 253 450 26 95 .964   1949 4 4 Luke Appling 492 148 21 5 5 82 58 121 24 0 6 7 12 23 .301 .439 .394 .833 87   14.5 4.2 18.7 .103 .030 .133 17.34 1949 4 4 Luke Appling
1949 13 Fred Hancock R   CHI 6 R 29   27 21 24 1 10 .978   1949 13 Fred Hancock 45 6 2 1 0 6 8 7 8 1 0 0 1 2 .133 .264 .222 .486 2   - - - .000 .000 .000 - 1949 13 Fred Hancock
       
1950 6 6 Chico Carrasquel T12 R-3   CHI 6 R 24   141 234 458 28 113 .961   1950 6 6 Chico Carrasquel 524 148 21 5 4 72 46 66 46 5 8 0 2 16 .282 .368 .365 .733 70   7.7 6.1 13.8 .055 .043 .098 11.63 1950 6 6 Chico Carrasquel
1950 12 Luke Appling BBW   CHI 6 R 43   20 37 50 3 13 .967   1950 12 Luke Appling 75 18 2 2 0 6 8 7 5 0 2 1 0 4 .240 .305 .320 .625 6   0.1 0.7 0.8 .005 .035 .040 0.43 1950 12 Luke Appling
       
1951 4 4 Chico Carrasquel A   CHI 4 R 25   147 300 477 20 107 .975   1951 4 4 Chico Carrasquel 538 142 22 4 2 41 58 46 39 3 8 14 4 13 .264 .325 .331 .656 57   5.8 10.6 16.4 .039 .072 .112 15.56 1951 4 4 Chico Carrasquel
1951 15 Joe DeMaestri R   CHI 4 R 22   27 26 45 3 12 .959   1951 15 Joe DeMaestri 43 9 0 1 1 5 2 3 6 0 0 0 2 1 .209 .261 .326 .587 2   - 0.8 0.8 .000 .030 .030 0.39 1951 15 Joe DeMaestri
       
Pos St All- Other Shortstop Fielding Statistics Pos St Batting Statistics as Shortstop Win Shares Pos St
Year Rank Rank Name HOF MVP Star Rookie GG SS Team Stdg Bats Age Pos Games PO Assts Err DP F Pct. Year Rank Rank Name At Bats Hits 2B 3B HR Runs RBI BB IBB SO HP SH SF SB CS GDP BA OBA SA OPS RC B WS F WS T WS BWS/G FWS/G TWS/G Adj WSQ Year Rank Rank Name
1952 5 5 Chico Carrasquel   CHI 3 R 26   99 176 248 16 50 .964   1952 5 5 Chico Carrasquel 359 89 7 4 1 36 42 33 27 2 3 2 2 5 .248 .315 .298 .613 34   3.8 4.6 8.4 .038 .046 .085 7.18 1952 5 5 Chico Carrasquel
1952 12 Willie Miranda R   CHI 3 B 26   54 72 138 5 28 .977   1952 12 Willie Miranda 133 29 4 1 0 12 6 12 12 1 7 1 0 2 .218 .288 .263 .551 10   0.2 2.4 2.6 .004 .044 .048 1.66 1952 12 Willie Miranda
1952 17 Sam Dente   CHI 3 R 30   27 42 56 6 14 .942   1952 17 Sam Dente 66 15 0 0 0 5 5 2 4 1 1 0 0 3 .227 .261 .227 .488 3   - 1.2 1.2 .000 .044 .044 0.74 1952 17 Sam Dente
       
1953 4 4 Chico Carrasquel T26 A   CHI 3 R 27   149 278 462 18 87 .976   1953 4 4 Chico Carrasquel 552 154 30 4 2 72 47 38 47 4 10 5 3 15 .279 .330 .359 .689 69   9.5 7.0 16.5 .064 .047 .111 16.36 1953 4 4 Chico Carrasquel
       
1954 1 1 Chico Carrasquel A   CHI 3 R 28   155 280 492 20 102 .975   1954 1 1 Chico Carrasquel 620 158 28 3 12 106 62 85 0 67 5 6 2 7 6 9 .255 .348 .368 .716 84   14.0 10.0 24.0 .090 .065 .155 30.12 1954 1 1 Chico Carrasquel
       
1955 3 3 Chico Carrasquel a   CHI 3 R 29   144 222 424 18 81 .973   1955 3 3 Chico Carrasquel 519 133 11 2 11 83 52 61 0 58 4 4 6 1 0 10 .256 .336 .349 .685 64   9.0 6.0 15.0 .063 .042 .104 16.02 1955 3 3 Chico Carrasquel
1955 14 Jim Brideweser   CHI 3 R 28   26 27 48 4 12 .949   1955 14 Jim Brideweser 53 10 2 2 0 4 4 3 0 6 0 1 0 0 0 3 .189 .232 .302 .534 3   - 0.6 0.6 .000 .023 .023 0.30 1955 14 Jim Brideweser
       
1956 3 3 Luis Aparacio BBW 25 R-1   CHI 3 R 22   152 250 474 35 91 .954   1956 3 3 Luis Aparacio 533 142 19 6 3 69 56 34 2 63 1 14 1 21 4 9 .266 .311 .341 .652 59   6.2 7.9 14.1 .041 .052 .093 12.99 1956 3 3 Luis Aparacio
       
1957 2 2 Luis Aparacio BBW   CHI 2 R 23   142 246 449 20 85 .972   1957 2 2 Luis Aparacio 574 148 22 6 3 82 41 52 1 55 0 9 4 28 8 7 .258 .317 .333 .650 65   9.5 6.3 15.8 .067 .044 .111 16.29 1957 2 2 Luis Aparacio
1957 12 Sammy Esposito   CHI 2 R 25 3B   22 28 73 3 12 .971   1957 12 Sammy Esposito 48 9 2 0 1 7 4 18 0 8 0 2 0 1 1 2 .188 .409 .292 .701 7   0.8 1.0 1.8 .036 .045 .082 1.59 1957 12 Sammy Esposito
       
1958 1 1 Luis Aparacio BBW A G   CHI 2 R 24   145 289 463 21 90 .973   1958 1 1 Luis Aparacio 557 148 20 9 2 76 40 35 2 38 1 8 3 29 6 8 .266 .309 .345 .654 61   9.5 9.2 18.7 .066 .063 .129 23.56 1958 1 1 Luis Aparacio
1958 14 Sammy Esposito   CHI 2 R 26 3B   22 24 43 4 7 .944   1958 14 Sammy Esposito 39 9 2 0 0 2 1 6 0 3 0 1 0 0 0 0 .231 .333 .282 .615 4   0.6 0.4 1.0 .027 .018 .045 0.74 1958 14 Sammy Esposito
       
1959 1 1 Luis Aparacio BBW 2 A(2) G   CHI 1 R 25   152 282 460 23 87 .970   1959 1 1 Luis Aparacio 612 157 18 5 6 98 51 53 1 40 3 11 7 56 13 11 .257 .316 .332 .648 70   11.4 7.2 18.6 .075 .047 .122 21.40 1959 1 1 Luis Aparacio
       
1960 3 3 Luis Aparacio BBW T21 a(2) G   CHI 3 R 26   153 305 551 18 117 .979   1960 3 3 Luis Aparacio 600 166 20 7 2 86 61 43 3 39 1 20 6 51 8 12 .277 .323 .343 .666 73   10.9 9.1 20.0 .071 .059 .131 21.31 1960 3 3 Luis Aparacio
       
1961 5 5 Luis Aparacio BBW 12 A G   CHI 4 R 27   156 264 487 30 86 .962   1961 5 5 Luis Aparacio 625 170 24 4 6 90 45 38 0 33 1 4 4 53 13 12 .272 .313 .352 .665 72   10.0 6.6 16.6 .064 .042 .106 16.20 1961 5 5 Luis Aparacio
1961 19 Sammy Esposito   CHI 4 R 29 3B   20 18 39 2 3 .966   1961 19 Sammy Esposito 45 13 5 0 1 6 7 6 0 7 0 1 2 0 0 2 .289 .358 .467 .825 6   - 0.5 0.5 .000 .025 .025 0.24 1961 19 Sammy Esposito
       
1962 7 7 Luis Aparacio BBW A(2) G   CHI 5 R 28   152 280 452 20 102 .973   1962 7 7 Luis Aparacio 580 140 23 5 7 72 40 32 1 36 1 4 4 30 12 11 .241 .280 .334 .614 54   4.9 8.0 12.9 .032 .053 .085 11.22 1962 7 7 Luis Aparacio
1962 20 Sammy Esposito   CHI 5 R 30 3B   20 20 47 2 5 .971   1962 20 Sammy Esposito 47 10 0 0 0 4 2 10 1 7 0 1 0 0 0 1 .213 .351 .213 .564 4   0.4 0.3 0.7 .020 .015 .035 0.39 1962 20 Sammy Esposito
       
1963 3 3 Ron Hansen   CHI 2 R 25   144 247 483 13 95 .983   1963 3 3 Ron Hansen 482 109 17 2 13 56 67 77 2 74 0 5 6 1 1 19 .226 .329 .351 .680 57   8.9 10.5 19.4 .062 .073 .135 20.38 1963 3 3 Ron Hansen
1963 11 Al Weis R   CHI 2 B 25 2B   27 35 65 8 13 .926   1963 11 Al Weis 75 24 4 0 0 11 7 8 1 12 1 0 0 6 0 0 .320 .393 .373 .766 13   2.4 1.3 3.7 .089 .048 .137 3.92 1963 11 Al Weis
       
1964 1 1 Ron Hansen 16   CHI 2 R 26   158 292 514 21 105 .975   1964 1 1 Ron Hansen 575 150 25 3 20 85 68 73 7 73 6 5 6 1 0 15 .261 .347 .419 .766 84   19.3 10.7 30.0 .122 .068 .190 34.82 1964 1 1 Ron Hansen
       
1965 4 4 Ron Hansen T17   CHI 2 R 27   161 287 527 26 97 .969   1965 4 4 Ron Hansen 587 138 23 4 11 62 66 61 8 73 2 5 8 1 1 21 .235 .305 .344 .649 60   10.2 7.8 18.0 .063 .048 .112 17.14 1965 4 4 Ron Hansen
       
1966 13 10 Jerry Adair   CHI 4 R 29 2B   75 109 236 9 35 .975   1966 13 10 Jerry Adair 230 55 11 1 3 16 23 10 0 23 0 6 4 2 1 11 .239 .266 .335 .601 18   2.6 2.7 5.3 .035 .036 .071 4.01 1966 13 10 Jerry Adair
1966 15 Lee Elia R   CHI 4 R 28   75 103 186 14 39 .954   1966 15 Lee Elia 194 40 5 2 3 13 22 15 3 37 2 1 3 0 1 7 .206 .266 .299 .565 14   0.8 2.0 2.8 .011 .027 .037 1.54 1966 15 Lee Elia
1966 18 Ron Hansen   CHI 4 R 28   23 49 73 7 17 .946   1966 18 Ron Hansen 74 13 1 0 0 3 4 15 3 10 1 5 0 0 1 0 .176 .322 .189 .511 6   0.5 0.9 1.4 .022 .039 .061 0.98 1966 18 Ron Hansen
       
1967 3 3 Ron Hansen 14   CHI 4 R 29   157 243 482 27 91 .964   1967 3 3 Ron Hansen 498 116 20 0 8 35 51 64 11 51 0 7 6 0 3 8 .233 .317 .321 .638 53   10.5 6.0 16.5 .067 .038 .105 16.39 1967 3 3 Ron Hansen
       
1968 3 3 Luis Aparacio BBW 14 G   CHI T8 R 34   154 269 535 19 92 .977   1968 3 3 Luis Aparacio 620 164 24 4 4 55 36 33 3 43 2 5 2 17 11 10 .265 .303 .335 .638 59   10.4 8.2 18.6 .068 .053 .121 19.41 1968 3 3 Luis Aparacio
       
1969 4 4 Luis Aparacio BBW   CHI 5W R 35   154 248 563 20 94 .976   1969 4 4 Luis Aparacio 598 168 24 5 5 77 51 66 1 29 2 10 4 24 4 14 .281 .352 .363 .715 81   12.3 7.4 19.7 .080 .048 .128 19.35 1969 4 4 Luis Aparacio
       
Pos St All- Other Shortstop Fielding Statistics Pos St Batting Statistics as Shortstop Win Shares Pos St
Year Rank Rank Name HOF MVP Star Rookie GG SS Team Stdg Bats Age Pos Games PO Assts Err DP F Pct. Year Rank Rank Name At Bats Hits 2B 3B HR Runs RBI BB IBB SO HP SH SF SB CS GDP BA OBA SA OPS RC B WS F WS T WS BWS/G FWS/G TWS/G Adj WSQ Year Rank Rank Name
1970 5 5 Luis Aparacio BBW T12 A G   CHI 6W R 36   146 251 483 18 99 .976   1970 5 5 Luis Aparacio 549 171 28 3 5 85 40 53 1 33 1 5 5 8 3 11 .311 .370 .401 .771 84   14.2 3.9 18.1 .097 .027 .124 18.43 1970 5 5 Luis Aparacio
1970 23 Rich Morales   CHI 6W R 26 3B   24 14 45 2 8 .967   1970 23 Rich Morales 43 8 1 0 0 3 0 3 0 8 1 0 0 0 0 2 .186 .255 .209 .464 2   - 0.3 0.3 .000 .013 .013 0.10 1970 23 Rich Morales
       
1971 18 11 Lee Richard R   CHI 3W R 22   68 87 210 26 30 .920   1971 18 11 Lee Richard 217 52 5 2 2 28 16 18 0 38 1 5 2 7 6 5 .240 .298 .309 .607 19   0.7 1.8 2.5 .010 .026 .037 1.52 1971 18 11 Lee Richard
1971 22 Luis Alvarado   CHI 3W R 22   71 89 189 12 34 .959   1971 22 Luis Alvarado 207 42 10 1 0 14 8 6 2 27 0 2 1 1 1 1 .203 .224 .261 .485 12   - 2.0 2.0 .000 .028 .028 1.07 1971 22 Luis Alvarado
1971 14 Rich Morales   CHI 3W R 27   57 66 138 5 14 .976   1971 14 Rich Morales 146 36 7 0 2 12 9 16 3 19 2 1 0 2 2 4 .247 .329 .336 .665 16   2.2 1.3 3.5 .039 .023 .061 2.75 1971 14 Rich Morales
       
1972 16 12 Rich Morales   CHI 2W R 28   86 120 213 11 32 .968   1972 16 12 Rich Morales 232 46 5 1 2 18 17 17 2 43 2 0 0 0 2 8 .198 .259 .254 .513 14   - 2.4 2.4 .000 .028 .028 1.31 1972 16 12 Rich Morales
1972 17 Luis Alvarado   CHI 2W R 23   81 98 213 14 28 .957   1972 17 Luis Alvarado 229 48 4 1 4 24 28 13 5 32 1 1 0 0 1 8 .210 .255 .288 .543 13   - 2.2 2.2 .000 .027 .027 1.18 1972 17 Luis Alvarado
       
1973 10 8 Eddie Leon   CHI 5W R 26   122 198 382 17 78 .972   1973 10 8 Eddie Leon 388 88 9 2 3 34 29 33 0 99 3 10 3 1 4 10 .227 .290 .284 .574 32   1.2 4.2 5.4 .010 .034 .044 4.02 1973 10 8 Eddie Leon
1973 20 Bucky Dent R   CHI 5W R 21   36 51 132 7 22 .963   1973 20 Bucky Dent 114 29 2 0 0 17 10 10 0 18 1 2 2 2 3 1 .254 .315 .272 .587 10   0.6 1.2 1.8 .017 .033 .050 1.43 1973 20 Bucky Dent
       
1974 3 3 Bucky Dent R-2   CHI 4W R 22   154 251 499 22 108 .972   1974 3 3 Bucky Dent 496 136 15 3 5 55 45 28 0 48 3 23 2 3 4 9 .274 .316 .347 .663 52   7.1 8.7 15.8 .046 .056 .103 16.72 1974 3 3 Bucky Dent
1974 24 Eddie Leon   CHI 4W R 27   21 17 33 2 8 .962   1974 24 Eddie Leon 30 4 1 0 0 1 3 1 0 7 0 0 1 0 0 4 .133 .156 .167 .323 0   - 0.6 0.6 .000 .029 .029 0.34 1974 24 Eddie Leon
       
1975 3 3 Bucky Dent a   CHI 5W R 23   157 279 543 16 105 .981   1975 3 3 Bucky Dent 602 159 29 4 3 52 58 36 3 48 0 15 9 2 4 16 .264 .301 .341 .642 58   6.0 10.2 16.2 .038 .065 .103 17.15 1975 3 3 Bucky Dent
       
1976 8 8 Bucky Dent   CHI 6W R 24   158 279 468 18 96 .976   1976 8 8 Bucky Dent 561 138 18 4 2 44 52 43 3 45 2 17 2 3 5 10 .246 .301 .303 .604 48   4.3 4.9 9.2 .027 .031 .058 6.93 1976 8 8 Bucky Dent
       
1977 8 8 Alan Bannister   CHI 3W R 25   133 259 325 40 51 .936   1977 8 8 Alan Bannister 536 149 19 2 3 85 57 53 1 43 2 3 11 4 3 10 .278 .339 .338 .677 65   9.1 1.8 10.9 .068 .014 .082 10.64 1977 8 8 Alan Bannister
1977 21 Don Kessinger   CHI 3W B 34 NL-2B,SS   21 32 38 3 12 .959   1977 21 Don Kessinger 61 15 2 1 0 5 7 6 1 5 0 0 0 0 0 3 .246 .313 .311 .624 5   0.9 0.6 1.5 .043 .029 .071 1.36 1977 21 Don Kessinger
       
1978 11 10 Don Kessinger   CHI 5W B 35   123 171 321 13 60 .974   1978 11 10 Don Kessinger 403 104 16 1 1 34 31 36 1 27 0 11 1 2 4 9 .258 .318 .310 .628 40   4.1 4.2 8.3 .033 .034 .067 7.12 1978 11 10 Don Kessinger
1978 21 Greg Pryor R   CHI 5W R 28 C,2B,3B   28 34 64 4 9 .961   1978 21 Greg Pryor 62 14 1 0 0 5 3 3 0 6 0 0 0 1 0 2 .226 .262 .242 .504 4   0.5 1.0 1.5 .018 .036 .054 1.14 1978 21 Greg Pryor
1978 20 Harry Chappas R   CHI 5W B 20   20 28 64 0 8 1.000   1978 20 Harry Chappas 75 20 1 0 0 11 6 6 0 11 1 3 3 1 2 0 .267 .318 .280 .598 7   0.7 0.9 1.6 .035 .045 .080 1.49 1978 20 Harry Chappas
       
1979 10 9 Greg Pryor   CHI 5W R 29 2B,3B   119 161 362 21 54 .961   1979 10 9 Greg Pryor 363 96 17 3 3 47 28 31 1 29 1 5 4 3 4 14 .264 .321 .353 .674 39   3.9 3.1 7.0 .033 .026 .059 5.80 1979 10 9 Greg Pryor
1979 28 Don Kessinger   CHI 5W B 36   54 57 103 2 17 .988   1979 28 Don Kessinger 108 22 6 0 1 14 7 10 1 12 0 3 1 1 0 5 .204 .269 .287 .556 7   - 1.0 1.0 .000 .019 .019 0.47 1979 28 Don Kessinger
1979 21 Harry Chappas R   CHI 5W B 21   23 28 63 7 13 .929   1979 21 Harry Chappas 57 16 1 0 1 8 4 5 0 5 1 0 0 1 1 1 .281 .349 .351 .700 7   0.9 0.5 1.4 .039 .022 .061 1.17 1979 21 Harry Chappas
       
1980 10 10 Todd Cruz R CHI 5W R 24   90 138 298 20 52 .956   1980 10 10 Todd Cruz 292 68 11 1 2 23 18 9 0 53 2 6 1 2 1 5 .233 .260 .298 .558 22   0.9 4.0 4.9 .010 .044 .054 3.61 1980 10 10 Todd Cruz
1980 14 Greg Pryor CHI 5W R 30 3B   76 97 248 9 46 .975   1980 14 Greg Pryor 208 54 12 2 0 23 17 9 0 25 2 5 4 1 1 9 .260 .291 .337 .628 19   0.4 3.6 4.0 .005 .047 .053 2.90 1980 14 Greg Pryor
     
1981 4 4 Bill Almon 19 CHI 3W R 28   103 190 340 17 78 .969   1981 4 4 Bill Almon 349 105 10 2 4 46 41 21 0 60 2 2 3 16 6 4 .301 .341 .375 .716 46   9.1 4.4 13.5 .088 .043 .131 14.72 1981 4 4 Bill Almon
     
1982 7 7 Bill Almon CHI 3W R 29   108 164 317 26 72 .949   1982 7 7 Bill Almon 306 79 10 4 4 37 26 24 0 49 1 1 1 9 6 3 .258 .313 .356 .669 34   4.5 3.5 8.0 .042 .032 .074 6.57 1982 7 7 Bill Almon
1982 10 Vance Law CHI 3W R 25 3B   85 126 239 18 44 .953   1982 10 Vance Law 258 72 14 1 4 29 39 17 1 32 1 4 5 3 2 7 .279 .320 .388 .708 31   4.9 2.2 7.1 .058 .026 .084 6.19 1982 10 Vance Law
     
1983 15 12 Jerry Dybzinski CHI 1W R 27   118 140 252 14 47 .966   1983 15 12 Jerry Dybzinski 253 59 10 1 1 23 32 17 0 29 2 11 3 11 3 7 .233 .284 .292 .576 22   0.7 3.9 4.6 .006 .033 .039 2.59 1983 15 12 Jerry Dybzinski
1983 9 Scott Fletcher R CHI 1W R 24   100 107 275 14 52 .965   1983 9 Scott Fletcher 238 56 14 4 2 33 27 27 0 21 1 6 1 4 1 7 .235 .315 .353 .668 27   3.6 4.0 7.6 .036 .040 .076 5.98 1983 9 Scott Fletcher
     
1984 6 6 Scott Fletcher CHI T5W R 25 2B   134 193 381 16 75 .973   1984 6 6 Scott Fletcher 400 100 12 3 3 40 30 39 1 40 8 8 1 8 4 5 .250 .328 .318 .646 45   4.7 6.5 11.2 .035 .049 .084 9.43 1984 6 6 Scott Fletcher
1984 16 Jerry Dybzinski CHI T5W R 28   76 68 154 6 32 .974   1984 16 Jerry Dybzinski 123 28 4 1 1 13 8 12 0 9 2 4 1 5 1 2 .228 .304 .301 .605 13   1.1 2.4 3.5 .014 .032 .046 2.19 1984 16 Jerry Dybzinski
     
Pos St All- Other Shortstop Fielding Statistics Pos St Batting Statistics as Shortstop Win Shares Pos St
Year Rank Rank Name HOF MVP Star Rookie GG SS Team Stdg Bats Age Pos Games PO Assts Err DP F Pct. Year Rank Rank Name At Bats Hits 2B 3B HR Runs RBI BB IBB SO HP SH SF SB CS GDP BA OBA SA OPS RC B WS F WS T WS BWS/G FWS/G TWS/G Adj WSQ Year Rank Rank Name
1985 6 6 Ozzie Guillen R-1 CHI 3W L 21   150 220 382 12 80 .980   1985 6 6 Ozzie Guillen 477 133 21 9 1 71 33 12 1 34 1 8 1 6 3 3 .279 .297 .367 .664 52   6.6 8.0 14.6 .044 .053 .097 14.85 1985 6 6 Ozzie Guillen
1985 15 Scott Fletcher CHI 3W R 26 2B,3B   44 56 83 1 18 .993   1985 15 Scott Fletcher 101 32 5 0 1 19 6 14 0 18 0 3 0 3 2 2 .317 .400 .396 .796 17   1.9 1.4 3.3 .043 .032 .075 2.95 1985 15 Scott Fletcher
     
1986 11 10 Ozzie Guillen CHI 5W L 22   157 261 459 22 93 .970   1986 11 10 Ozzie Guillen 545 137 19 4 2 58 47 12 1 52 1 12 5 7 4 14 .251 .266 .312 .578 43   0.7 8.3 9.0 .004 .053 .057 6.46 1986 11 10 Ozzie Guillen
     
1987 7 7 Ozzie Guillen CHI 5W L 23   149 266 475 19 105 .975   1987 7 7 Ozzie Guillen 558 155 22 7 2 64 51 22 2 52 1 13 8 25 8 10 .278 .302 .353 .655 60   5.0 8.5 13.5 .034 .057 .091 12.03 1987 7 7 Ozzie Guillen
1987 20 Fred Manrique R CHI 5W R 25 2B   23 29 52 1 6 .988   1987 20 Fred Manrique 57 16 1 0 2 8 4 4 0 11 0 1 0 1 1 2 .281 .328 .404 .732 7   0.6 1.0 1.6 .026 .043 .070 1.25 1987 20 Fred Manrique
     
1988 6 6 Ozzie Guillen a-inj CHI 5W L 24   156 273 570 20 115 .977   1988 6 6 Ozzie Guillen 566 148 16 7 0 58 39 25 3 40 2 10 3 25 13 14 .261 .294 .314 .608 50   6.0 9.6 15.6 .038 .062 .100 14.87 1988 6 6 Ozzie Guillen
     
1989 8 7 Ozzie Guillen CHI 7W L 25   155 272 512 22 106 .973   1989 8 7 Ozzie Guillen 597 151 20 8 1 63 54 14 3 48 0 11 3 36 17 8 .253 .269 .318 .587 49   3.8 7.9 11.7 .025 .051 .075 10.50 1989 8 7 Ozzie Guillen
     
1990 4 4 Ozzie Guillen 17 a G CHI 2W L 26   159 252 474 17 100 .977   1990 4 4 Ozzie Guillen 514 144 21 4 1 61 58 25 8 37 1 14 5 13 17 6 .280 .312 .342 .654 52   8.1 9.1 17.2 .051 .057 .108 18.02 1990 4 4 Ozzie Guillen
     
1991 9 8 Ozzie Guillen a CHI 2W L 27   149 249 439 21 88 .970   1991 9 8 Ozzie Guillen 518 142 20 3 3 52 49 10 1 37 0 13 7 21 15 7 .274 .284 .342 .626 47   3.2 6.1 9.3 .021 .041 .062 7.48 1991 9 8 Ozzie Guillen
1991 13 Craig Grebeck R CHI 2W R 26 2B,3B   26 20 38 4 9 .935   1991 13 Craig Grebeck 50 19 5 0 3 12 13 8 0 13 0 1 0 1 0 1 .380 .466 .660 1.126 16   3.2 0.8 4.0 .123 .031 .154 5.05 1991 13 Craig Grebeck
     
1992 8 7 Craig Grebeck CHI 3W R 27   85 110 277 8 47 .980   1992 8 7 Craig Grebeck 272 74 19 2 3 25 35 28 0 32 3 10 3 0 2 3 .272 .343 .390 .733 38   6.9 2.5 9.4 .081 .029 .111 10.04 1992 8 7 Craig Grebeck
1992 28 Esteban Beltre R CHI 3W R 24   43 53 92 12 12 .924   1992 28 Esteban Beltre 110 21 2 0 1 17 10 3 0 18 0 2 1 0 0 3 .191 .211 .236 .447 3   - 0.7 0.7 .000 .016 .016 0.28 1992 28 Esteban Beltre
1992 26 Dale Sveum CHI 3W B 28 NL-SS   37 39 97 8 19 .944   1992 26 Dale Sveum 110 25 9 0 2 15 12 12 0 26 0 2 3 1 1 1 .227 .296 .364 .660 10   1.2 1.0 2.2 .032 .027 .059 1.72 1992 26 Dale Sveum
     
1993 8 7 Ozzie Guillen CHI 1W L 29   133 189 361 16 82 .972   1993 8 7 Ozzie Guillen 454 127 23 4 4 44 49 10 0 40 0 13 6 5 4 6 .280 .291 .374 .665 49   6.1 5.5 11.6 .046 .041 .087 10.92 1993 8 7 Ozzie Guillen
1993 23 Craig Grebeck CHI 1W R 28   46 56 114 3 25 .983   1993 23 Craig Grebeck 106 24 2 0 1 15 6 16 0 16 0 5 0 1 2 4 .226 .328 .274 .602 10   0.2 2.0 2.2 .004 .043 .048 1.53 1993 23 Craig Grebeck
     
1994 6 6 Ozzie Guillen CHI 1C L 30   99 139 237 16 46 .959   1994 6 6 Ozzie Guillen 363 105 9 5 1 46 39 14 2 34 0 7 4 5 4 5 .289 .312 .350 .662 38   3.1 4.5 7.6 .031 .045 .077 6.77 1994 6 6 Ozzie Guillen
     
1995 16 13 Ozzie Guillen CHI 3C L 31   120 167 318 12 58 .976   1995 16 13 Ozzie Guillen 407 100 20 3 1 49 38 13 1 25 0 4 1 6 7 11 .246 .268 .317 .585 30   - 4.9 4.9 .000 .041 .041 3.15 1995 16 13 Ozzie Guillen
1995 18 Craig Grebeck CHI 3C R 30   31 51 95 6 20 .961   1995 18 Craig Grebeck 91 23 5 0 1 10 10 12 0 16 3 3 0 0 0 1 .253 .358 .341 .699 12   1.6 1.3 2.9 .052 .042 .094 2.82 1995 18 Craig Grebeck
     
1996 13 12 Ozzie Guillen CHI 2C L 32   146 220 348 11 69 .981   1996 13 12 Ozzie Guillen 490 130 23 8 4 61 44 10 0 27 0 12 6 6 5 9 .265 .277 .369 .646 47   2.3 4.5 6.8 .016 .031 .047 4.34 1996 13 12 Ozzie Guillen
1996 17 Norberto Martin CHI 2C R 29 DH   24 39 44 5 17 .943   1996 17 Norberto Martin 65 26 3 0 0 13 8 3 0 7 0 0 1 5 1 2 .400 .420 .446 .866 12   1.6 0.9 2.5 .067 .038 .104 2.39 1996 17 Norberto Martin
     
1997 9 9 Ozzie Guillen CHI 2C L 33   139 207 348 15 78 .974   1997 9 9 Ozzie Guillen 485 119 21 6 4 58 52 22 1 23 0 11 4 5 3 7 .245 .276 .338 .614 45   4.1 5.4 9.5 .029 .039 .068 7.82 1997 9 9 Ozzie Guillen
1997 14 Norberto Martin CHI 2C R 30   28 27 45 3 11 .960   1997 14 Norberto Martin 87 29 2 1 1 12 13 3 0 10 0 0 0 0 2 1 .333 .356 .414 .770 12   2.0 0.8 2.8 .071 .029 .100 2.79 1997 14 Norberto Martin
     
1998 6 6 Mike Caruso R-3 CHI 2C L 21   131 216 378 35 91 .944   1998 6 6 Mike Caruso 522 160 17 6 5 81 55 14 0 38 7 8 3 22 6 8 .307 .332 .391 .723 66   10.2 3.1 13.3 .078 .024 .102 12.55 1998 6 6 Mike Caruso
1998 25 Chris Snopek CHI 2C R 27   33 47 93 4 16 .972   1998 25 Chris Snopek 95 18 2 0 1 11 3 13 0 16 1 0 0 3 0 2 .189 .294 .242 .536 8   0.3 0.7 1.0 .009 .021 .030 0.51 1998 25 Chris Snopek
     
1999 14 13 Mike Caruso CHI 2C L 22   132 183 348 24 86 .957   1999 14 13 Mike Caruso 526 130 11 4 2 57 35 20 0 36 3 11 1 12 14 6 .247 .278 .295 .573 41   - 4.5 4.5 .000 .034 .034 2.21 1999 14 13 Mike Caruso
1999 20 Craig F. Wilson CHI 2C R 28 3B   22 29 38 1 8 .985   1999 20 Craig F. Wilson 60 10 1 0 1 5 2 5 0 5 0 2 0 0 0 1 .167 .231 .233 .464 3   0.4 1.0 1.4 .018 .045 .064 0.94 1999 20 Craig F. Wilson
     
2000 3 3 Jose Valentin CHI 1C B 30   141 234 456 36 118 .950   2000 3 3 Jose Valentin 559 151 36 5 24 107 85 59 1 105 4 13 4 18 2 11 .270 .342 .481 .823 95   16.0 7.8 23.8 .113 .055 .169 26.23 2000 3 3 Jose Valentin
2000 15 Tony Graffanino CHI 1C R 28 2B   21 24 61 3 16 .966   2000 15 Tony Graffanino 67 19 3 0 2 13 9 15 0 13 0 0 1 6 1 1 .284 .410 .418 .828 13   1.9 1.0 2.9 .090 .048 .138 2.88 2000 15 Tony Graffanino
     
Pos St All- Other Shortstop Fielding Statistics Pos St Batting Statistics as Shortstop Win Shares Pos St
Year Rank Rank Name HOF MVP Star Rookie GG SS Team Stdg Bats Age Pos Games PO Assts Err DP F Pct. Year Rank Rank Name At Bats Hits 2B 3B HR Runs RBI BB IBB SO HP SH SF SB CS GDP BA OBA SA OPS RC B WS F WS T WS BWS/G FWS/G TWS/G Adj WSQ Year Rank Rank Name
2001 11 10 Royce Clayton CHI 3C R 31   133 196 367 7 74 .988   2001 11 10 Royce Clayton 432 114 21 4 9 62 60 33 2 71 3 9 7 10 7 16 .264 .316 .394 .710 50   4.4 5.8 10.2 .033 .044 .077 7.79 2001 11 10 Royce Clayton
2001 12 Jose Valentin CHI 3C B 31 3B,CF   43 64 117 9 34 .953   2001 12 Jose Valentin 141 44 9 1 10 28 20 17 0 32 0 4 1 3 0 1 .312 .384 .603 .987 34   5.4 1.5 6.9 .126 .035 .160 7.62 2001 12 Jose Valentin
     
2002 13 12 Royce Clayton CHI 2C R 32   109 166 292 5 72 .989   2002 13 12 Royce Clayton 341 86 14 2 7 51 35 20 0 67 3 6 4 5 1 7 .252 .296 .367 .663 36   3.0 5.1 8.1 .028 .047 .074 5.98 2002 13 12 Royce Clayton
2002 12 Jose Valentin CHI 2C B 32 3B   50 80 124 8 37 .962   2002 12 Jose Valentin 182 47 10 1 11 32 28 19 0 39 0 3 1 0 0 7 .258 .327 .505 .832 28   4.5 2.1 6.6 .090 .042 .132 6.49 2002 12 Jose Valentin
     
2003 5 5 Jose Valentin CHI 2C B 33   143 223 395 20 96 .969   2003 5 5 Jose Valentin 496 116 25 2 28 79 74 54 4 111 3 7 2 8 3 6 .234 .312 .462 .774 72   10.3 7.8 18.1 .072 .055 .127 18.43 2003 5 5 Jose Valentin
2003 14 Tony Graffanino CHI 2C R 31 2B,3B   36 41 79 4 17 .968   2003 14 Tony Graffanino 101 28 6 1 2 16 12 8 0 11 1 2 1 3 0 0 .277 .333 .416 .749 16   2.5 1.5 4.0 .069 .042 .111 3.82 2003 14 Tony Graffanino
     
2004 8 8 Jose Valentin CHI 2C B 34   122 186 373 20 85 .965   2004 8 8 Jose Valentin 438 97 20 3 30 73 70 40 3 136 3 6 2 7 6 5 .221 .290 .486 .776 60   8.1 6.5 14.6 .066 .053 .120 14.33 2004 8 8 Jose Valentin
2004 12 Juan Uribe CHI 2C R 24 2B,3B   38 54 115 3 31 .983   2004 12 Juan Uribe 121 37 8 3 5 18 19 10 1 26 1 4 2 4 2 2 .306 .358 .545 .903 24   3.5 2.3 5.8 .092 .061 .153 6.43 2004 12 Juan Uribe
     
2005 6 6 Juan Uribe CHI 1C R 25   146 250 422 16 99 .977   2005 6 6 Juan Uribe 481 121 23 3 16 58 71 34 0 77 4 11 10 4 6 7 .252 .301 .412 .713 60   7.2 11.3 18.5 .049 .077 .127 18.34 2005 6 6 Juan Uribe
     
2006 9 9 Juan Uribe CHI 3C R 26   132 217 373 14 83 .977   2006 9 9 Juan Uribe 462 109 28 2 21 53 71 13 1 82 3 9 7 1 1 10 .236 .258 .442 .700 50   4.5 7.2 11.7 .034 .055 .089 9.89 2006 9 9 Juan Uribe
2006 16 Alex Cintron CHI 3C B 27 2B   41 50 94 4 19 .973   2006 16 Alex Cintron 138 41 7 2 3 13 21 3 0 16 1 0 1 3 2 4 .297 .315 .442 .757 17   1.4 1.7 3.1 .034 .041 .076 2.43 2006 16 Alex Cintron
     
2007 9 9 Juan Uribe CHI 4C R 27   150 245 443 17 102 .976   2007 9 9 Juan Uribe 513 120 18 2 20 55 68 34 2 112 4 7 5 1 9 6 .234 .284 .394 .678 55   3.5 9.7 13.2 .023 .065 .088 11.62 2007 9 9 Juan Uribe
     
2008 4 4 Orlando Cabrera CHI 1C R 33   161 242 472 16 101 .978   2008 4 4 Orlando Cabrera 660 186 33 1 8 94 57 56 1 71 1 3 9 17 6 16 .282 .335 .371 .706 83   9.2 8.9 18.1 .057 .055 .112 18.64 2008 4 4 Orlando Cabrera
     
2009 7 7 Alexei Ramirez CHI 3C R 27   148 220 410 20 94 .969   2009 7 7 Alexei Ramirez 542 150 14 1 15 72 68 49 3 66 1 6 8 14 5 15 .277 .333 .389 .722 69   8.4 5.7 14.1 .057 .039 .095 13.22 2009 7 7 Alexei Ramirez
     
2010 2 2 Alexei Ramirez S CHI 2C R 28   156 249 499 20 109 .974   2010 2 2 Alexei Ramirez 584 164 29 2 18 83 69 27 2 82 2 7 5 11 8 12 .281 .312 .430 .742 75   9.8 10.3 20.1 .063 .066 .129 22.39 2010 2 2 Alexei Ramirez
Copyright 2009-11 by Andre Lower
Sources:
All-Time Major League Handbook
Win Shares Digital Update
baseball-reference.com
ESPN Baseball Encyclopedia